sensor_id;sensor_type;location;lat;lon;timestamp;P1;durP1;ratioP1;P2;durP2;ratioP2
4353;SDS011;11018;51.258;6.806;2023-03-01T00:00:14;18.02;;;9.80;;
4353;SDS011;11018;51.258;6.806;2023-03-01T00:02:40;17.20;;;9.87;;
4353;SDS011;11018;51.258;6.806;2023-03-01T00:05:05;14.83;;;10.20;;
4353;SDS011;11018;51.258;6.806;2023-03-01T00:07:32;18.67;;;10.63;;
4353;SDS011;11018;51.258;6.806;2023-03-01T00:09:58;19.23;;;9.60;;
4353;SDS011;11018;51.258;6.806;2023-03-01T00:12:23;19.37;;;10.70;;
4353;SDS011;11018;51.258;6.806;2023-03-01T00:14:49;17.45;;;10.38;;
4353;SDS011;11018;51.258;6.806;2023-03-01T00:17:14;19.15;;;10.50;;
4353;SDS011;11018;51.258;6.806;2023-03-01T00:19:40;18.73;;;10.77;;
4353;SDS011;11018;51.258;6.806;2023-03-01T00:22:05;17.00;;;10.80;;
4353;SDS011;11018;51.258;6.806;2023-03-01T00:24:31;15.35;;;9.80;;
4353;SDS011;11018;51.258;6.806;2023-03-01T00:26:56;16.48;;;10.20;;
4353;SDS011;11018;51.258;6.806;2023-03-01T00:29:23;16.30;;;10.30;;
4353;SDS011;11018;51.258;6.806;2023-03-01T00:31:49;17.45;;;10.70;;
4353;SDS011;11018;51.258;6.806;2023-03-01T00:34:15;17.77;;;10.40;;
4353;SDS011;11018;51.258;6.806;2023-03-01T00:36:41;16.23;;;10.07;;
4353;SDS011;11018;51.258;6.806;2023-03-01T00:39:09;18.23;;;11.20;;
4353;SDS011;11018;51.258;6.806;2023-03-01T00:41:36;18.70;;;11.38;;
4353;SDS011;11018;51.258;6.806;2023-03-01T00:44:02;18.20;;;10.60;;
4353;SDS011;11018;51.258;6.806;2023-03-01T00:46:28;19.90;;;10.88;;
4353;SDS011;11018;51.258;6.806;2023-03-01T00:48:55;17.05;;;10.50;;
4353;SDS011;11018;51.258;6.806;2023-03-01T00:51:24;17.67;;;11.13;;
4353;SDS011;11018;51.258;6.806;2023-03-01T00:53:52;19.95;;;11.02;;
4353;SDS011;11018;51.258;6.806;2023-03-01T00:56:19;17.40;;;10.60;;
4353;SDS011;11018;51.258;6.806;2023-03-01T00:58:45;15.65;;;10.27;;
4353;SDS011;11018;51.258;6.806;2023-03-01T01:01:13;19.23;;;11.18;;
4353;SDS011;11018;51.258;6.806;2023-03-01T01:03:43;18.25;;;11.07;;
4353;SDS011;11018;51.258;6.806;2023-03-01T01:06:14;15.15;;;10.15;;
4353;SDS011;11018;51.258;6.806;2023-03-01T01:08:43;21.38;;;11.10;;
4353;SDS011;11018;51.258;6.806;2023-03-01T01:11:10;18.47;;;10.70;;
4353;SDS011;11018;51.258;6.806;2023-03-01T01:13:36;18.75;;;11.45;;
4353;SDS011;11018;51.258;6.806;2023-03-01T01:16:02;22.30;;;11.10;;
4353;SDS011;11018;51.258;6.806;2023-03-01T01:18:28;19.00;;;10.55;;
4353;SDS011;11018;51.258;6.806;2023-03-01T01:20:53;17.23;;;11.50;;
4353;SDS011;11018;51.258;6.806;2023-03-01T01:23:19;20.50;;;11.30;;
4353;SDS011;11018;51.258;6.806;2023-03-01T01:25:44;18.58;;;11.10;;
4353;SDS011;11018;51.258;6.806;2023-03-01T01:28:10;16.25;;;11.20;;
4353;SDS011;11018;51.258;6.806;2023-03-01T01:30:35;16.17;;;10.37;;
4353;SDS011;11018;51.258;6.806;2023-03-01T01:33:01;19.80;;;11.60;;
4353;SDS011;11018;51.258;6.806;2023-03-01T01:35:27;21.37;;;12.40;;
4353;SDS011;11018;51.258;6.806;2023-03-01T01:37:52;18.80;;;11.00;;
4353;SDS011;11018;51.258;6.806;2023-03-01T01:40:18;20.30;;;11.30;;
4353;SDS011;11018;51.258;6.806;2023-03-01T01:42:43;17.57;;;11.20;;
4353;SDS011;11018;51.258;6.806;2023-03-01T01:45:42;21.55;;;11.15;;
4353;SDS011;11018;51.258;6.806;2023-03-01T01:48:10;20.93;;;11.33;;
4353;SDS011;11018;51.258;6.806;2023-03-01T01:50:40;20.08;;;11.27;;
4353;SDS011;11018;51.258;6.806;2023-03-01T01:53:07;19.67;;;11.80;;
4353;SDS011;11018;51.258;6.806;2023-03-01T01:55:37;20.95;;;13.07;;
4353;SDS011;11018;51.258;6.806;2023-03-01T01:58:07;22.92;;;12.13;;
4353;SDS011;11018;51.258;6.806;2023-03-01T02:00:35;17.85;;;11.00;;
4353;SDS011;11018;51.258;6.806;2023-03-01T02:03:11;16.92;;;11.48;;
4353;SDS011;11018;51.258;6.806;2023-03-01T02:08:11;20.92;;;11.80;;
4353;SDS011;11018;51.258;6.806;2023-03-01T02:10:38;20.85;;;11.68;;
4353;SDS011;11018;51.258;6.806;2023-03-01T02:13:05;19.08;;;12.00;;
4353;SDS011;11018;51.258;6.806;2023-03-01T02:15:33;19.42;;;11.20;;
4353;SDS011;11018;51.258;6.806;2023-03-01T02:17:59;18.58;;;11.25;;
4353;SDS011;11018;51.258;6.806;2023-03-01T02:20:29;18.38;;;11.18;;
4353;SDS011;11018;51.258;6.806;2023-03-01T02:23:02;20.40;;;11.80;;
4353;SDS011;11018;51.258;6.806;2023-03-01T02:25:33;21.35;;;12.40;;
4353;SDS011;11018;51.258;6.806;2023-03-01T02:28:31;20.17;;;12.30;;
4353;SDS011;11018;51.258;6.806;2023-03-01T02:30:57;23.30;;;12.50;;
4353;SDS011;11018;51.258;6.806;2023-03-01T02:33:41;20.00;;;12.50;;
4353;SDS011;11018;51.258;6.806;2023-03-01T02:36:10;23.25;;;12.90;;
4353;SDS011;11018;51.258;6.806;2023-03-01T02:38:40;21.10;;;13.20;;
4353;SDS011;11018;51.258;6.806;2023-03-01T02:41:07;21.10;;;13.40;;
4353;SDS011;11018;51.258;6.806;2023-03-01T02:43:33;22.47;;;14.10;;
4353;SDS011;11018;51.258;6.806;2023-03-01T02:46:07;21.60;;;13.27;;
4353;SDS011;11018;51.258;6.806;2023-03-01T02:48:39;32.50;;;14.10;;
4353;SDS011;11018;51.258;6.806;2023-03-01T02:56:51;21.02;;;13.32;;
4353;SDS011;11018;51.258;6.806;2023-03-01T02:59:18;19.42;;;12.60;;
4353;SDS011;11018;51.258;6.806;2023-03-01T03:01:46;19.38;;;12.10;;
4353;SDS011;11018;51.258;6.806;2023-03-01T03:04:13;23.53;;;14.03;;
4353;SDS011;11018;51.258;6.806;2023-03-01T03:06:43;28.90;;;13.50;;
4353;SDS011;11018;51.258;6.806;2023-03-01T03:09:10;28.90;;;12.37;;
4353;SDS011;11018;51.258;6.806;2023-03-01T03:11:37;24.95;;;12.65;;
4353;SDS011;11018;51.258;6.806;2023-03-01T03:14:04;21.67;;;12.45;;
4353;SDS011;11018;51.258;6.806;2023-03-01T03:16:30;24.90;;;13.50;;
4353;SDS011;11018;51.258;6.806;2023-03-01T03:18:55;22.63;;;13.20;;
4353;SDS011;11018;51.258;6.806;2023-03-01T03:21:30;23.00;;;13.40;;
4353;SDS011;11018;51.258;6.806;2023-03-01T03:23:57;21.30;;;13.48;;
4353;SDS011;11018;51.258;6.806;2023-03-01T03:26:22;20.73;;;12.07;;
4353;SDS011;11018;51.258;6.806;2023-03-01T03:28:48;21.40;;;12.73;;
4353;SDS011;11018;51.258;6.806;2023-03-01T03:31:14;17.60;;;12.37;;
4353;SDS011;11018;51.258;6.806;2023-03-01T03:33:39;22.10;;;13.23;;
4353;SDS011;11018;51.258;6.806;2023-03-01T03:36:05;21.73;;;12.48;;
4353;SDS011;11018;51.258;6.806;2023-03-01T03:38:31;21.70;;;12.77;;
4353;SDS011;11018;51.258;6.806;2023-03-01T03:41:03;22.10;;;12.02;;
4353;SDS011;11018;51.258;6.806;2023-03-01T03:43:32;22.08;;;12.93;;
4353;SDS011;11018;51.258;6.806;2023-03-01T03:46:00;23.90;;;12.48;;
4353;SDS011;11018;51.258;6.806;2023-03-01T03:48:32;19.85;;;12.55;;
4353;SDS011;11018;51.258;6.806;2023-03-01T03:50:59;20.10;;;12.50;;
4353;SDS011;11018;51.258;6.806;2023-03-01T03:53:25;19.80;;;12.77;;
4353;SDS011;11018;51.258;6.806;2023-03-01T03:55:52;21.20;;;13.18;;
4353;SDS011;11018;51.258;6.806;2023-03-01T03:58:19;21.90;;;12.73;;
4353;SDS011;11018;51.258;6.806;2023-03-01T04:00:51;19.17;;;13.40;;
4353;SDS011;11018;51.258;6.806;2023-03-01T04:03:20;19.83;;;13.43;;
4353;SDS011;11018;51.258;6.806;2023-03-01T04:05:47;21.55;;;12.55;;
4353;SDS011;11018;51.258;6.806;2023-03-01T04:08:14;22.17;;;13.32;;
4353;SDS011;11018;51.258;6.806;2023-03-01T04:10:41;21.63;;;13.05;;
4353;SDS011;11018;51.258;6.806;2023-03-01T04:13:09;23.67;;;13.10;;
4353;SDS011;11018;51.258;6.806;2023-03-01T04:15:37;18.17;;;12.90;;
4353;SDS011;11018;51.258;6.806;2023-03-01T04:18:04;23.52;;;13.40;;
4353;SDS011;11018;51.258;6.806;2023-03-01T04:20:31;22.73;;;13.07;;
4353;SDS011;11018;51.258;6.806;2023-03-01T04:25:39;25.20;;;13.50;;
4353;SDS011;11018;51.258;6.806;2023-03-01T04:28:06;19.55;;;12.75;;
4353;SDS011;11018;51.258;6.806;2023-03-01T04:30:32;21.63;;;13.88;;
4353;SDS011;11018;51.258;6.806;2023-03-01T04:33:04;22.40;;;12.98;;
4353;SDS011;11018;51.258;6.806;2023-03-01T04:35:31;23.30;;;13.63;;
4353;SDS011;11018;51.258;6.806;2023-03-01T04:37:57;19.88;;;12.75;;
4353;SDS011;11018;51.258;6.806;2023-03-01T04:40:23;21.35;;;13.70;;
4353;SDS011;11018;51.258;6.806;2023-03-01T04:42:49;21.42;;;13.50;;
4353;SDS011;11018;51.258;6.806;2023-03-01T04:45:15;24.33;;;14.40;;
4353;SDS011;11018;51.258;6.806;2023-03-01T04:47:41;24.97;;;13.30;;
4353;SDS011;11018;51.258;6.806;2023-03-01T04:50:09;22.60;;;13.43;;
4353;SDS011;11018;51.258;6.806;2023-03-01T04:52:36;22.17;;;13.40;;
4353;SDS011;11018;51.258;6.806;2023-03-01T04:55:02;24.33;;;12.15;;
4353;SDS011;11018;51.258;6.806;2023-03-01T04:57:29;17.52;;;12.02;;
4353;SDS011;11018;51.258;6.806;2023-03-01T04:59:54;25.63;;;13.68;;
4353;SDS011;11018;51.258;6.806;2023-03-01T05:02:20;24.90;;;13.30;;
4353;SDS011;11018;51.258;6.806;2023-03-01T05:04:45;22.60;;;13.70;;
4353;SDS011;11018;51.258;6.806;2023-03-01T05:07:11;22.40;;;13.47;;
4353;SDS011;11018;51.258;6.806;2023-03-01T05:09:37;27.35;;;14.77;;
4353;SDS011;11018;51.258;6.806;2023-03-01T05:12:03;24.73;;;12.90;;
4353;SDS011;11018;51.258;6.806;2023-03-01T05:14:29;26.25;;;12.32;;
4353;SDS011;11018;51.258;6.806;2023-03-01T05:16:55;23.40;;;14.40;;
4353;SDS011;11018;51.258;6.806;2023-03-01T05:19:28;25.53;;;13.53;;
4353;SDS011;11018;51.258;6.806;2023-03-01T05:21:55;24.27;;;14.13;;
4353;SDS011;11018;51.258;6.806;2023-03-01T05:24:31;23.85;;;14.20;;
4353;SDS011;11018;51.258;6.806;2023-03-01T05:26:59;22.52;;;14.50;;
4353;SDS011;11018;51.258;6.806;2023-03-01T05:29:26;22.92;;;14.35;;
4353;SDS011;11018;51.258;6.806;2023-03-01T05:31:57;21.58;;;13.80;;
4353;SDS011;11018;51.258;6.806;2023-03-01T05:34:24;26.58;;;15.18;;
4353;SDS011;11018;51.258;6.806;2023-03-01T05:36:51;24.55;;;14.13;;
4353;SDS011;11018;51.258;6.806;2023-03-01T05:39:18;24.50;;;14.15;;
4353;SDS011;11018;51.258;6.806;2023-03-01T05:41:48;22.23;;;14.20;;
4353;SDS011;11018;51.258;6.806;2023-03-01T05:44:17;22.38;;;14.00;;
4353;SDS011;11018;51.258;6.806;2023-03-01T05:46:43;23.80;;;14.07;;
4353;SDS011;11018;51.258;6.806;2023-03-01T05:49:09;22.52;;;14.35;;
4353;SDS011;11018;51.258;6.806;2023-03-01T05:51:35;27.90;;;13.73;;
4353;SDS011;11018;51.258;6.806;2023-03-01T05:54:01;22.83;;;13.60;;
4353;SDS011;11018;51.258;6.806;2023-03-01T05:56:27;25.92;;;15.02;;
4353;SDS011;11018;51.258;6.806;2023-03-01T05:58:52;25.67;;;13.63;;
4353;SDS011;11018;51.258;6.806;2023-03-01T06:01:18;25.30;;;13.87;;
4353;SDS011;11018;51.258;6.806;2023-03-01T06:03:43;57.70;;;18.10;;
4353;SDS011;11018;51.258;6.806;2023-03-01T06:06:09;37.60;;;15.83;;
4353;SDS011;11018;51.258;6.806;2023-03-01T06:08:34;29.90;;;14.50;;
4353;SDS011;11018;51.258;6.806;2023-03-01T06:11:00;26.00;;;14.20;;
4353;SDS011;11018;51.258;6.806;2023-03-01T06:13:25;31.97;;;15.50;;
4353;SDS011;11018;51.258;6.806;2023-03-01T06:15:51;26.60;;;15.38;;
4353;SDS011;11018;51.258;6.806;2023-03-01T06:18:16;24.65;;;14.80;;
4353;SDS011;11018;51.258;6.806;2023-03-01T06:20:42;25.93;;;14.80;;
4353;SDS011;11018;51.258;6.806;2023-03-01T06:23:08;27.80;;;14.40;;
4353;SDS011;11018;51.258;6.806;2023-03-01T06:25:33;28.00;;;15.07;;
4353;SDS011;11018;51.258;6.806;2023-03-01T06:27:59;29.02;;;15.50;;
4353;SDS011;11018;51.258;6.806;2023-03-01T06:30:25;24.70;;;14.33;;
4353;SDS011;11018;51.258;6.806;2023-03-01T06:32:51;29.95;;;15.18;;
4353;SDS011;11018;51.258;6.806;2023-03-01T06:35:18;24.27;;;13.88;;
4353;SDS011;11018;51.258;6.806;2023-03-01T06:37:44;21.70;;;13.38;;
4353;SDS011;11018;51.258;6.806;2023-03-01T06:40:13;24.95;;;14.35;;
4353;SDS011;11018;51.258;6.806;2023-03-01T06:42:40;26.33;;;14.48;;
4353;SDS011;11018;51.258;6.806;2023-03-01T06:45:08;29.50;;;14.55;;
4353;SDS011;11018;51.258;6.806;2023-03-01T06:47:34;27.23;;;15.30;;
4353;SDS011;11018;51.258;6.806;2023-03-01T06:50:00;24.52;;;14.60;;
4353;SDS011;11018;51.258;6.806;2023-03-01T06:52:27;26.40;;;15.20;;
4353;SDS011;11018;51.258;6.806;2023-03-01T06:54:53;24.08;;;13.60;;
4353;SDS011;11018;51.258;6.806;2023-03-01T06:57:18;27.30;;;15.23;;
4353;SDS011;11018;51.258;6.806;2023-03-01T06:59:44;31.40;;;15.07;;
4353;SDS011;11018;51.258;6.806;2023-03-01T07:02:11;29.90;;;15.50;;
4353;SDS011;11018;51.258;6.806;2023-03-01T07:04:37;30.35;;;16.25;;
4353;SDS011;11018;51.258;6.806;2023-03-01T07:07:03;40.80;;;16.87;;
4353;SDS011;11018;51.258;6.806;2023-03-01T07:09:28;23.37;;;14.13;;
4353;SDS011;11018;51.258;6.806;2023-03-01T07:11:54;24.83;;;13.98;;
4353;SDS011;11018;51.258;6.806;2023-03-01T07:14:20;24.42;;;14.55;;
4353;SDS011;11018;51.258;6.806;2023-03-01T07:16:46;28.30;;;15.15;;
4353;SDS011;11018;51.258;6.806;2023-03-01T07:19:12;31.08;;;16.33;;
4353;SDS011;11018;51.258;6.806;2023-03-01T07:21:37;36.53;;;15.20;;
4353;SDS011;11018;51.258;6.806;2023-03-01T07:24:06;26.08;;;14.27;;
4353;SDS011;11018;51.258;6.806;2023-03-01T07:26:32;27.98;;;15.40;;
4353;SDS011;11018;51.258;6.806;2023-03-01T07:28:58;25.25;;;15.10;;
4353;SDS011;11018;51.258;6.806;2023-03-01T07:31:24;25.50;;;14.80;;
4353;SDS011;11018;51.258;6.806;2023-03-01T07:33:52;30.55;;;14.73;;
4353;SDS011;11018;51.258;6.806;2023-03-01T07:36:18;29.05;;;15.32;;
4353;SDS011;11018;51.258;6.806;2023-03-01T07:38:44;27.37;;;15.73;;
4353;SDS011;11018;51.258;6.806;2023-03-01T07:41:09;29.10;;;15.17;;
4353;SDS011;11018;51.258;6.806;2023-03-01T07:43:35;25.73;;;15.20;;
4353;SDS011;11018;51.258;6.806;2023-03-01T07:46:01;30.33;;;15.10;;
4353;SDS011;11018;51.258;6.806;2023-03-01T07:48:28;25.08;;;14.68;;
4353;SDS011;11018;51.258;6.806;2023-03-01T07:50:54;26.88;;;14.15;;
4353;SDS011;11018;51.258;6.806;2023-03-01T07:53:22;29.95;;;15.25;;
4353;SDS011;11018;51.258;6.806;2023-03-01T07:55:48;32.85;;;15.68;;
4353;SDS011;11018;51.258;6.806;2023-03-01T07:58:13;23.03;;;13.50;;
4353;SDS011;11018;51.258;6.806;2023-03-01T08:00:39;35.70;;;15.20;;
4353;SDS011;11018;51.258;6.806;2023-03-01T08:03:04;23.00;;;13.17;;
4353;SDS011;11018;51.258;6.806;2023-03-01T08:05:30;23.58;;;15.02;;
4353;SDS011;11018;51.258;6.806;2023-03-01T08:07:56;30.50;;;14.27;;
4353;SDS011;11018;51.258;6.806;2023-03-01T08:10:22;29.63;;;14.57;;
4353;SDS011;11018;51.258;6.806;2023-03-01T08:12:50;24.20;;;14.30;;
4353;SDS011;11018;51.258;6.806;2023-03-01T08:15:16;22.10;;;13.60;;
4353;SDS011;11018;51.258;6.806;2023-03-01T08:17:43;26.17;;;14.68;;
4353;SDS011;11018;51.258;6.806;2023-03-01T08:20:09;22.80;;;12.90;;
4353;SDS011;11018;51.258;6.806;2023-03-01T08:22:37;24.80;;;13.75;;
4353;SDS011;11018;51.258;6.806;2023-03-01T08:25:02;25.97;;;14.13;;
4353;SDS011;11018;51.258;6.806;2023-03-01T08:27:28;32.60;;;15.32;;
4353;SDS011;11018;51.258;6.806;2023-03-01T08:29:54;24.47;;;14.13;;
4353;SDS011;11018;51.258;6.806;2023-03-01T08:32:19;29.50;;;16.63;;
4353;SDS011;11018;51.258;6.806;2023-03-01T08:34:48;26.03;;;15.10;;
4353;SDS011;11018;51.258;6.806;2023-03-01T08:37:13;25.27;;;14.40;;
4353;SDS011;11018;51.258;6.806;2023-03-01T08:39:39;22.73;;;14.50;;
4353;SDS011;11018;51.258;6.806;2023-03-01T08:42:05;25.40;;;14.50;;
4353;SDS011;11018;51.258;6.806;2023-03-01T08:44:30;23.30;;;14.02;;
4353;SDS011;11018;51.258;6.806;2023-03-01T08:46:56;27.27;;;14.30;;
4353;SDS011;11018;51.258;6.806;2023-03-01T08:49:22;23.92;;;13.68;;
4353;SDS011;11018;51.258;6.806;2023-03-01T08:51:48;24.25;;;14.40;;
4353;SDS011;11018;51.258;6.806;2023-03-01T08:54:15;26.42;;;14.50;;
4353;SDS011;11018;51.258;6.806;2023-03-01T08:56:45;26.23;;;13.80;;
4353;SDS011;11018;51.258;6.806;2023-03-01T08:59:11;23.77;;;14.18;;
4353;SDS011;11018;51.258;6.806;2023-03-01T09:01:38;23.35;;;14.25;;
4353;SDS011;11018;51.258;6.806;2023-03-01T09:04:05;24.55;;;13.30;;
4353;SDS011;11018;51.258;6.806;2023-03-01T09:06:31;24.83;;;13.95;;
4353;SDS011;11018;51.258;6.806;2023-03-01T09:08:58;25.38;;;14.57;;
4353;SDS011;11018;51.258;6.806;2023-03-01T09:11:25;27.33;;;15.30;;
4353;SDS011;11018;51.258;6.806;2023-03-01T09:13:50;24.30;;;13.57;;
4353;SDS011;11018;51.258;6.806;2023-03-01T09:16:17;24.23;;;13.60;;
4353;SDS011;11018;51.258;6.806;2023-03-01T09:18:44;22.85;;;13.60;;
4353;SDS011;11018;51.258;6.806;2023-03-01T09:21:11;24.73;;;14.50;;
4353;SDS011;11018;51.258;6.806;2023-03-01T09:23:40;22.38;;;14.45;;
4353;SDS011;11018;51.258;6.806;2023-03-01T09:26:08;24.90;;;14.13;;
4353;SDS011;11018;51.258;6.806;2023-03-01T09:28:38;22.80;;;13.88;;
4353;SDS011;11018;51.258;6.806;2023-03-01T09:31:09;21.85;;;13.25;;
4353;SDS011;11018;51.258;6.806;2023-03-01T09:33:37;23.53;;;13.83;;
4353;SDS011;11018;51.258;6.806;2023-03-01T09:36:05;25.07;;;14.23;;
4353;SDS011;11018;51.258;6.806;2023-03-01T09:38:32;24.70;;;14.07;;
4353;SDS011;11018;51.258;6.806;2023-03-01T09:40:59;22.67;;;15.10;;
4353;SDS011;11018;51.258;6.806;2023-03-01T09:46:13;19.33;;;12.95;;
4353;SDS011;11018;51.258;6.806;2023-03-01T09:48:42;24.73;;;15.05;;
4353;SDS011;11018;51.258;6.806;2023-03-01T09:51:17;24.08;;;14.43;;
4353;SDS011;11018;51.258;6.806;2023-03-01T09:53:47;27.25;;;14.38;;
4353;SDS011;11018;51.258;6.806;2023-03-01T09:58:48;30.80;;;13.73;;
4353;SDS011;11018;51.258;6.806;2023-03-01T10:07:05;24.65;;;14.38;;
4353;SDS011;11018;51.258;6.806;2023-03-01T10:09:42;23.90;;;13.93;;
4353;SDS011;11018;51.258;6.806;2023-03-01T10:12:14;24.97;;;14.23;;
4353;SDS011;11018;51.258;6.806;2023-03-01T10:17:33;25.08;;;14.20;;
4353;SDS011;11018;51.258;6.806;2023-03-01T10:20:16;20.92;;;12.60;;
4353;SDS011;11018;51.258;6.806;2023-03-01T10:22:47;22.20;;;13.32;;
4353;SDS011;11018;51.258;6.806;2023-03-01T10:28:17;27.10;;;14.00;;
4353;SDS011;11018;51.258;6.806;2023-03-01T10:30:49;22.20;;;13.18;;
4353;SDS011;11018;51.258;6.806;2023-03-01T10:33:19;22.55;;;13.02;;
4353;SDS011;11018;51.258;6.806;2023-03-01T10:35:49;21.33;;;13.00;;
4353;SDS011;11018;51.258;6.806;2023-03-01T10:38:15;21.10;;;12.52;;
4353;SDS011;11018;51.258;6.806;2023-03-01T10:41:04;23.45;;;12.68;;
4353;SDS011;11018;51.258;6.806;2023-03-01T10:43:53;19.52;;;12.63;;
4353;SDS011;11018;51.258;6.806;2023-03-01T10:49:14;21.20;;;11.53;;
4353;SDS011;11018;51.258;6.806;2023-03-01T10:51:46;21.15;;;12.27;;
4353;SDS011;11018;51.258;6.806;2023-03-01T10:54:33;22.13;;;12.23;;
4353;SDS011;11018;51.258;6.806;2023-03-01T10:56:59;21.73;;;12.82;;
4353;SDS011;11018;51.258;6.806;2023-03-01T10:59:27;19.20;;;10.73;;
4353;SDS011;11018;51.258;6.806;2023-03-01T11:04:39;21.50;;;12.70;;
4353;SDS011;11018;51.258;6.806;2023-03-01T11:07:22;22.52;;;12.60;;
4353;SDS011;11018;51.258;6.806;2023-03-01T11:09:47;23.63;;;14.20;;
4353;SDS011;11018;51.258;6.806;2023-03-01T11:12:14;22.70;;;13.45;;
4353;SDS011;11018;51.258;6.806;2023-03-01T11:14:47;21.17;;;13.43;;
4353;SDS011;11018;51.258;6.806;2023-03-01T11:25:19;20.88;;;13.00;;
4353;SDS011;11018;51.258;6.806;2023-03-01T11:27:53;22.05;;;13.45;;
4353;SDS011;11018;51.258;6.806;2023-03-01T11:30:29;17.95;;;10.80;;
4353;SDS011;11018;51.258;6.806;2023-03-01T11:35:41;22.17;;;11.90;;
4353;SDS011;11018;51.258;6.806;2023-03-01T11:38:25;22.15;;;11.65;;
4353;SDS011;11018;51.258;6.806;2023-03-01T11:40:57;19.15;;;10.77;;
4353;SDS011;11018;51.258;6.806;2023-03-01T11:43:34;20.42;;;11.35;;
4353;SDS011;11018;51.258;6.806;2023-03-01T11:48:59;19.55;;;11.27;;
4353;SDS011;11018;51.258;6.806;2023-03-01T11:51:37;20.73;;;12.77;;
4353;SDS011;11018;51.258;6.806;2023-03-01T11:54:19;21.27;;;11.93;;
4353;SDS011;11018;51.258;6.806;2023-03-01T12:00:11;18.17;;;10.85;;
4353;SDS011;11018;51.258;6.806;2023-03-01T12:05:30;18.30;;;11.15;;
4353;SDS011;11018;51.258;6.806;2023-03-01T12:08:28;18.85;;;10.90;;
4353;SDS011;11018;51.258;6.806;2023-03-01T12:13:41;20.85;;;11.50;;
4353;SDS011;11018;51.258;6.806;2023-03-01T12:16:28;20.67;;;10.82;;
4353;SDS011;11018;51.258;6.806;2023-03-01T12:19:14;20.50;;;10.93;;
4353;SDS011;11018;51.258;6.806;2023-03-01T12:37:49;14.85;;;9.80;;
4353;SDS011;11018;51.258;6.806;2023-03-01T12:51:37;17.58;;;9.38;;
4353;SDS011;11018;51.258;6.806;2023-03-01T12:54:18;14.18;;;9.57;;
4353;SDS011;11018;51.258;6.806;2023-03-01T12:56:51;18.33;;;9.32;;
4353;SDS011;11018;51.258;6.806;2023-03-01T12:59:28;16.85;;;9.48;;
4353;SDS011;11018;51.258;6.806;2023-03-01T13:10:02;15.93;;;8.80;;
4353;SDS011;11018;51.258;6.806;2023-03-01T13:12:51;17.35;;;9.73;;
4353;SDS011;11018;51.258;6.806;2023-03-01T13:17:56;16.05;;;10.05;;
4353;SDS011;11018;51.258;6.806;2023-03-01T13:20:30;18.87;;;10.23;;
4353;SDS011;11018;51.258;6.806;2023-03-01T13:23:12;15.97;;;9.97;;
4353;SDS011;11018;51.258;6.806;2023-03-01T13:38:58;14.67;;;8.90;;
4353;SDS011;11018;51.258;6.806;2023-03-01T13:54:56;16.35;;;9.90;;
4353;SDS011;11018;51.258;6.806;2023-03-01T13:57:24;15.00;;;10.30;;
4353;SDS011;11018;51.258;6.806;2023-03-01T13:59:53;16.67;;;10.18;;
4353;SDS011;11018;51.258;6.806;2023-03-01T14:02:18;20.30;;;10.13;;
4353;SDS011;11018;51.258;6.806;2023-03-01T14:04:44;13.38;;;9.10;;
4353;SDS011;11018;51.258;6.806;2023-03-01T14:07:23;22.23;;;10.45;;
4353;SDS011;11018;51.258;6.806;2023-03-01T14:09:54;18.05;;;9.18;;
4353;SDS011;11018;51.258;6.806;2023-03-01T14:15:49;19.23;;;9.88;;
4353;SDS011;11018;51.258;6.806;2023-03-01T14:18:18;16.90;;;9.07;;
4353;SDS011;11018;51.258;6.806;2023-03-01T14:20:51;15.18;;;9.20;;
4353;SDS011;11018;51.258;6.806;2023-03-01T14:23:18;18.80;;;9.50;;
4353;SDS011;11018;51.258;6.806;2023-03-01T14:25:47;19.52;;;9.50;;
4353;SDS011;11018;51.258;6.806;2023-03-01T14:28:24;56.20;;;11.00;;
4353;SDS011;11018;51.258;6.806;2023-03-01T14:30:54;15.52;;;9.30;;
4353;SDS011;11018;51.258;6.806;2023-03-01T14:33:32;16.00;;;9.83;;
4353;SDS011;11018;51.258;6.806;2023-03-01T14:41:01;15.95;;;10.13;;
4353;SDS011;11018;51.258;6.806;2023-03-01T14:43:43;15.80;;;9.50;;
4353;SDS011;11018;51.258;6.806;2023-03-01T14:46:29;16.17;;;10.00;;
4353;SDS011;11018;51.258;6.806;2023-03-01T14:49:11;17.98;;;9.75;;
4353;SDS011;11018;51.258;6.806;2023-03-01T14:51:41;18.75;;;9.43;;
4353;SDS011;11018;51.258;6.806;2023-03-01T14:54:18;19.92;;;10.38;;
4353;SDS011;11018;51.258;6.806;2023-03-01T14:57:05;15.18;;;9.20;;
4353;SDS011;11018;51.258;6.806;2023-03-01T14:59:32;16.73;;;9.70;;
4353;SDS011;11018;51.258;6.806;2023-03-01T15:01:59;16.85;;;9.90;;
4353;SDS011;11018;51.258;6.806;2023-03-01T15:04:26;12.75;;;8.82;;
4353;SDS011;11018;51.258;6.806;2023-03-01T15:06:53;13.50;;;9.88;;
4353;SDS011;11018;51.258;6.806;2023-03-01T15:09:20;17.23;;;9.65;;
4353;SDS011;11018;51.258;6.806;2023-03-01T15:11:47;16.92;;;8.73;;
4353;SDS011;11018;51.258;6.806;2023-03-01T15:14:47;15.30;;;8.63;;
4353;SDS011;11018;51.258;6.806;2023-03-01T15:19:55;13.38;;;8.73;;
4353;SDS011;11018;51.258;6.806;2023-03-01T15:22:21;16.52;;;9.73;;
4353;SDS011;11018;51.258;6.806;2023-03-01T15:24:50;18.00;;;9.23;;
4353;SDS011;11018;51.258;6.806;2023-03-01T15:27:17;14.37;;;8.90;;
4353;SDS011;11018;51.258;6.806;2023-03-01T15:29:56;15.50;;;9.65;;
4353;SDS011;11018;51.258;6.806;2023-03-01T15:32:31;16.53;;;9.10;;
4353;SDS011;11018;51.258;6.806;2023-03-01T15:34:57;19.20;;;8.77;;
4353;SDS011;11018;51.258;6.806;2023-03-01T15:37:36;16.98;;;9.30;;
4353;SDS011;11018;51.258;6.806;2023-03-01T15:43:03;15.77;;;10.10;;
4353;SDS011;11018;51.258;6.806;2023-03-01T15:45:31;13.20;;;8.87;;
4353;SDS011;11018;51.258;6.806;2023-03-01T15:48:04;13.68;;;9.23;;
4353;SDS011;11018;51.258;6.806;2023-03-01T15:50:39;17.80;;;9.07;;
4353;SDS011;11018;51.258;6.806;2023-03-01T15:53:06;19.80;;;12.10;;
4353;SDS011;11018;51.258;6.806;2023-03-01T15:55:36;19.83;;;10.90;;
4353;SDS011;11018;51.258;6.806;2023-03-01T15:58:22;18.15;;;9.65;;
4353;SDS011;11018;51.258;6.806;2023-03-01T16:00:49;16.45;;;10.00;;
4353;SDS011;11018;51.258;6.806;2023-03-01T16:03:20;18.70;;;9.85;;
4353;SDS011;11018;51.258;6.806;2023-03-01T16:05:47;15.73;;;9.50;;
4353;SDS011;11018;51.258;6.806;2023-03-01T16:08:13;15.05;;;9.13;;
4353;SDS011;11018;51.258;6.806;2023-03-01T16:10:40;13.80;;;8.90;;
4353;SDS011;11018;51.258;6.806;2023-03-01T16:13:08;18.77;;;9.68;;
4353;SDS011;11018;51.258;6.806;2023-03-01T16:15:34;17.58;;;10.07;;
4353;SDS011;11018;51.258;6.806;2023-03-01T16:18:00;23.67;;;11.25;;
4353;SDS011;11018;51.258;6.806;2023-03-01T16:20:26;15.13;;;9.50;;
4353;SDS011;11018;51.258;6.806;2023-03-01T16:22:53;13.80;;;8.45;;
4353;SDS011;11018;51.258;6.806;2023-03-01T16:25:19;22.38;;;11.15;;
4353;SDS011;11018;51.258;6.806;2023-03-01T16:27:46;14.40;;;9.23;;
4353;SDS011;11018;51.258;6.806;2023-03-01T16:32:41;16.23;;;8.65;;
4353;SDS011;11018;51.258;6.806;2023-03-01T16:35:09;13.85;;;8.10;;
4353;SDS011;11018;51.258;6.806;2023-03-01T16:37:37;13.18;;;8.15;;
4353;SDS011;11018;51.258;6.806;2023-03-01T16:40:04;16.47;;;8.80;;
4353;SDS011;11018;51.258;6.806;2023-03-01T16:42:35;17.20;;;8.90;;
4353;SDS011;11018;51.258;6.806;2023-03-01T16:45:01;14.98;;;9.10;;
4353;SDS011;11018;51.258;6.806;2023-03-01T16:47:28;16.10;;;8.90;;
4353;SDS011;11018;51.258;6.806;2023-03-01T16:49:54;15.45;;;8.65;;
4353;SDS011;11018;51.258;6.806;2023-03-01T16:52:20;16.48;;;8.60;;
4353;SDS011;11018;51.258;6.806;2023-03-01T16:54:46;16.90;;;8.70;;
4353;SDS011;11018;51.258;6.806;2023-03-01T16:57:12;14.57;;;9.43;;
4353;SDS011;11018;51.258;6.806;2023-03-01T16:59:38;15.07;;;9.45;;
4353;SDS011;11018;51.258;6.806;2023-03-01T17:02:04;13.13;;;8.10;;